sensor_id;sensor_type;location;lat;lon;timestamp;P1;durP1;ratioP1;P2;durP2;ratioP2
47009;SDS011;59230;54.164;-3.124;2023-04-21T00:01:27;25.88;;;7.25;;
47009;SDS011;59230;54.164;-3.124;2023-04-21T00:03:54;21.80;;;5.10;;
47009;SDS011;59230;54.164;-3.124;2023-04-21T00:06:19;21.33;;;4.63;;
47009;SDS011;59230;54.164;-3.124;2023-04-21T00:08:46;22.23;;;6.00;;
47009;SDS011;59230;54.164;-3.124;2023-04-21T00:11:12;27.10;;;6.00;;
47009;SDS011;59230;54.164;-3.124;2023-04-21T00:13:39;25.00;;;6.20;;
47009;SDS011;59230;54.164;-3.124;2023-04-21T00:16:04;17.65;;;5.38;;
47009;SDS011;59230;54.164;-3.124;2023-04-21T00:18:30;28.88;;;5.55;;
47009;SDS011;59230;54.164;-3.124;2023-04-21T00:20:56;29.17;;;6.38;;
47009;SDS011;59230;54.164;-3.124;2023-04-21T00:23:21;17.08;;;5.80;;
47009;SDS011;59230;54.164;-3.124;2023-04-21T00:25:47;21.17;;;5.88;;
47009;SDS011;59230;54.164;-3.124;2023-04-21T00:28:12;18.42;;;6.13;;
47009;SDS011;59230;54.164;-3.124;2023-04-21T00:30:38;20.38;;;6.05;;
47009;SDS011;59230;54.164;-3.124;2023-04-21T00:33:04;20.00;;;6.28;;
47009;SDS011;59230;54.164;-3.124;2023-04-21T00:35:29;15.63;;;5.57;;
47009;SDS011;59230;54.164;-3.124;2023-04-21T00:37:54;24.65;;;6.22;;
47009;SDS011;59230;54.164;-3.124;2023-04-21T00:40:20;24.15;;;6.55;;
47009;SDS011;59230;54.164;-3.124;2023-04-21T00:42:45;25.00;;;6.47;;
47009;SDS011;59230;54.164;-3.124;2023-04-21T00:45:11;23.15;;;6.47;;
47009;SDS011;59230;54.164;-3.124;2023-04-21T00:47:36;27.20;;;6.45;;
47009;SDS011;59230;54.164;-3.124;2023-04-21T00:50:02;20.90;;;5.70;;
47009;SDS011;59230;54.164;-3.124;2023-04-21T00:52:28;21.67;;;6.03;;
47009;SDS011;59230;54.164;-3.124;2023-04-21T00:54:54;21.38;;;6.03;;
47009;SDS011;59230;54.164;-3.124;2023-04-21T00:57:19;21.40;;;6.13;;
47009;SDS011;59230;54.164;-3.124;2023-04-21T00:59:45;22.17;;;6.43;;
47009;SDS011;59230;54.164;-3.124;2023-04-21T01:02:10;20.92;;;6.47;;
47009;SDS011;59230;54.164;-3.124;2023-04-21T01:04:36;28.33;;;7.15;;
47009;SDS011;59230;54.164;-3.124;2023-04-21T01:07:04;24.80;;;7.10;;
47009;SDS011;59230;54.164;-3.124;2023-04-21T01:09:31;21.10;;;7.13;;
47009;SDS011;59230;54.164;-3.124;2023-04-21T01:14:33;23.00;;;6.50;;
47009;SDS011;59230;54.164;-3.124;2023-04-21T01:17:03;22.92;;;7.47;;
47009;SDS011;59230;54.164;-3.124;2023-04-21T01:19:33;25.80;;;6.78;;
47009;SDS011;59230;54.164;-3.124;2023-04-21T01:22:01;27.83;;;7.78;;
47009;SDS011;59230;54.164;-3.124;2023-04-21T01:24:44;25.95;;;7.38;;
47009;SDS011;59230;54.164;-3.124;2023-04-21T01:27:11;28.77;;;7.13;;
47009;SDS011;59230;54.164;-3.124;2023-04-21T01:29:45;24.40;;;6.90;;
47009;SDS011;59230;54.164;-3.124;2023-04-21T01:32:13;26.98;;;7.60;;
47009;SDS011;59230;54.164;-3.124;2023-04-21T01:34:41;29.05;;;7.60;;
47009;SDS011;59230;54.164;-3.124;2023-04-21T01:37:08;29.80;;;7.53;;
47009;SDS011;59230;54.164;-3.124;2023-04-21T01:39:38;22.40;;;7.40;;
47009;SDS011;59230;54.164;-3.124;2023-04-21T01:42:04;31.10;;;8.18;;
47009;SDS011;59230;54.164;-3.124;2023-04-21T01:44:30;32.08;;;7.90;;
47009;SDS011;59230;54.164;-3.124;2023-04-21T01:46:56;23.65;;;7.68;;
47009;SDS011;59230;54.164;-3.124;2023-04-21T01:49:21;22.42;;;7.60;;
47009;SDS011;59230;54.164;-3.124;2023-04-21T01:51:47;23.38;;;7.55;;
47009;SDS011;59230;54.164;-3.124;2023-04-21T01:54:12;24.23;;;7.45;;
47009;SDS011;59230;54.164;-3.124;2023-04-21T01:56:38;18.67;;;6.80;;
47009;SDS011;59230;54.164;-3.124;2023-04-21T01:59:03;28.88;;;8.02;;
47009;SDS011;59230;54.164;-3.124;2023-04-21T02:01:28;20.42;;;8.13;;
47009;SDS011;59230;54.164;-3.124;2023-04-21T02:03:54;25.83;;;8.43;;
47009;SDS011;59230;54.164;-3.124;2023-04-21T02:06:19;25.95;;;8.90;;
47009;SDS011;59230;54.164;-3.124;2023-04-21T02:08:45;25.42;;;9.38;;
47009;SDS011;59230;54.164;-3.124;2023-04-21T02:11:10;24.98;;;8.80;;
47009;SDS011;59230;54.164;-3.124;2023-04-21T02:13:35;29.55;;;8.43;;
47009;SDS011;59230;54.164;-3.124;2023-04-21T02:16:01;24.42;;;9.35;;
47009;SDS011;59230;54.164;-3.124;2023-04-21T02:18:27;31.10;;;11.02;;
47009;SDS011;59230;54.164;-3.124;2023-04-21T02:20:53;33.42;;;9.52;;
47009;SDS011;59230;54.164;-3.124;2023-04-21T02:23:20;23.17;;;7.55;;
47009;SDS011;59230;54.164;-3.124;2023-04-21T02:25:46;27.25;;;8.50;;
47009;SDS011;59230;54.164;-3.124;2023-04-21T02:28:11;24.15;;;8.35;;
47009;SDS011;59230;54.164;-3.124;2023-04-21T02:30:36;18.58;;;7.68;;
47009;SDS011;59230;54.164;-3.124;2023-04-21T02:33:02;19.23;;;8.23;;
47009;SDS011;59230;54.164;-3.124;2023-04-21T02:35:27;30.40;;;9.15;;
47009;SDS011;59230;54.164;-3.124;2023-04-21T02:37:53;20.05;;;8.27;;
47009;SDS011;59230;54.164;-3.124;2023-04-21T02:40:18;21.80;;;8.95;;
47009;SDS011;59230;54.164;-3.124;2023-04-21T02:42:43;23.85;;;9.25;;
47009;SDS011;59230;54.164;-3.124;2023-04-21T02:45:09;27.98;;;9.27;;
47009;SDS011;59230;54.164;-3.124;2023-04-21T02:47:35;24.58;;;9.25;;
47009;SDS011;59230;54.164;-3.124;2023-04-21T02:50:00;21.35;;;8.75;;
47009;SDS011;59230;54.164;-3.124;2023-04-21T02:52:26;17.63;;;8.35;;
47009;SDS011;59230;54.164;-3.124;2023-04-21T02:54:52;20.52;;;8.48;;
47009;SDS011;59230;54.164;-3.124;2023-04-21T02:57:17;23.90;;;9.40;;
47009;SDS011;59230;54.164;-3.124;2023-04-21T02:59:42;19.27;;;8.85;;
47009;SDS011;59230;54.164;-3.124;2023-04-21T03:02:08;24.70;;;9.38;;
47009;SDS011;59230;54.164;-3.124;2023-04-21T03:04:33;23.58;;;9.55;;
47009;SDS011;59230;54.164;-3.124;2023-04-21T03:06:59;27.40;;;9.35;;
47009;SDS011;59230;54.164;-3.124;2023-04-21T03:09:25;20.52;;;9.02;;
47009;SDS011;59230;54.164;-3.124;2023-04-21T03:11:50;20.77;;;10.10;;
47009;SDS011;59230;54.164;-3.124;2023-04-21T03:14:15;19.75;;;8.40;;
47009;SDS011;59230;54.164;-3.124;2023-04-21T03:16:41;21.85;;;9.13;;
47009;SDS011;59230;54.164;-3.124;2023-04-21T03:19:06;23.67;;;8.73;;
47009;SDS011;59230;54.164;-3.124;2023-04-21T03:21:32;17.52;;;9.00;;
47009;SDS011;59230;54.164;-3.124;2023-04-21T03:23:57;24.25;;;9.55;;
47009;SDS011;59230;54.164;-3.124;2023-04-21T03:26:22;21.27;;;9.10;;
47009;SDS011;59230;54.164;-3.124;2023-04-21T03:28:48;19.35;;;9.35;;
47009;SDS011;59230;54.164;-3.124;2023-04-21T03:31:13;18.80;;;8.88;;
47009;SDS011;59230;54.164;-3.124;2023-04-21T03:33:39;20.15;;;8.82;;
47009;SDS011;59230;54.164;-3.124;2023-04-21T03:36:04;22.80;;;8.75;;
47009;SDS011;59230;54.164;-3.124;2023-04-21T03:38:30;31.52;;;9.45;;
47009;SDS011;59230;54.164;-3.124;2023-04-21T03:40:56;24.75;;;8.88;;
47009;SDS011;59230;54.164;-3.124;2023-04-21T03:43:21;17.08;;;8.25;;
47009;SDS011;59230;54.164;-3.124;2023-04-21T03:45:47;20.98;;;8.65;;
47009;SDS011;59230;54.164;-3.124;2023-04-21T03:48:12;26.23;;;8.20;;
47009;SDS011;59230;54.164;-3.124;2023-04-21T03:50:37;20.27;;;9.18;;
47009;SDS011;59230;54.164;-3.124;2023-04-21T03:53:03;20.98;;;8.95;;
47009;SDS011;59230;54.164;-3.124;2023-04-21T03:55:28;19.52;;;8.85;;
47009;SDS011;59230;54.164;-3.124;2023-04-21T03:57:53;23.95;;;8.32;;
47009;SDS011;59230;54.164;-3.124;2023-04-21T04:00:19;22.83;;;8.75;;
47009;SDS011;59230;54.164;-3.124;2023-04-21T04:02:45;19.52;;;7.80;;
47009;SDS011;59230;54.164;-3.124;2023-04-21T04:05:10;18.98;;;8.52;;
47009;SDS011;59230;54.164;-3.124;2023-04-21T04:07:36;24.75;;;8.50;;
47009;SDS011;59230;54.164;-3.124;2023-04-21T04:10:02;21.65;;;7.68;;
47009;SDS011;59230;54.164;-3.124;2023-04-21T04:12:28;22.50;;;8.48;;
47009;SDS011;59230;54.164;-3.124;2023-04-21T04:14:53;23.00;;;8.75;;
47009;SDS011;59230;54.164;-3.124;2023-04-21T04:17:19;20.10;;;8.02;;
47009;SDS011;59230;54.164;-3.124;2023-04-21T04:19:44;17.42;;;8.27;;
47009;SDS011;59230;54.164;-3.124;2023-04-21T04:22:10;22.27;;;7.82;;
47009;SDS011;59230;54.164;-3.124;2023-04-21T04:24:36;27.27;;;8.27;;
47009;SDS011;59230;54.164;-3.124;2023-04-21T04:27:01;24.60;;;8.30;;
47009;SDS011;59230;54.164;-3.124;2023-04-21T04:29:27;36.35;;;9.02;;
47009;SDS011;59230;54.164;-3.124;2023-04-21T04:31:53;26.67;;;8.57;;
47009;SDS011;59230;54.164;-3.124;2023-04-21T04:34:19;24.00;;;7.60;;
47009;SDS011;59230;54.164;-3.124;2023-04-21T04:36:45;24.67;;;8.40;;
47009;SDS011;59230;54.164;-3.124;2023-04-21T04:39:12;23.45;;;8.48;;
47009;SDS011;59230;54.164;-3.124;2023-04-21T04:41:38;27.27;;;8.32;;
47009;SDS011;59230;54.164;-3.124;2023-04-21T04:44:03;22.48;;;8.07;;
47009;SDS011;59230;54.164;-3.124;2023-04-21T04:46:30;30.45;;;8.75;;
47009;SDS011;59230;54.164;-3.124;2023-04-21T04:48:55;26.27;;;8.43;;
47009;SDS011;59230;54.164;-3.124;2023-04-21T04:51:21;27.73;;;9.02;;
47009;SDS011;59230;54.164;-3.124;2023-04-21T04:53:47;31.13;;;9.15;;
47009;SDS011;59230;54.164;-3.124;2023-04-21T04:56:13;32.78;;;8.63;;
47009;SDS011;59230;54.164;-3.124;2023-04-21T04:58:38;30.70;;;8.80;;
47009;SDS011;59230;54.164;-3.124;2023-04-21T05:01:13;25.48;;;8.48;;
47009;SDS011;59230;54.164;-3.124;2023-04-21T05:03:40;32.08;;;9.35;;
47009;SDS011;59230;54.164;-3.124;2023-04-21T05:06:05;25.63;;;8.25;;
47009;SDS011;59230;54.164;-3.124;2023-04-21T05:08:31;28.38;;;8.75;;
47009;SDS011;59230;54.164;-3.124;2023-04-21T05:10:56;31.38;;;9.63;;
47009;SDS011;59230;54.164;-3.124;2023-04-21T05:13:22;23.95;;;9.13;;
47009;SDS011;59230;54.164;-3.124;2023-04-21T05:15:47;26.05;;;9.30;;
47009;SDS011;59230;54.164;-3.124;2023-04-21T05:18:12;33.60;;;9.55;;
47009;SDS011;59230;54.164;-3.124;2023-04-21T05:20:41;28.83;;;8.80;;
47009;SDS011;59230;54.164;-3.124;2023-04-21T05:23:06;28.80;;;9.30;;
47009;SDS011;59230;54.164;-3.124;2023-04-21T05:25:32;26.90;;;9.48;;
47009;SDS011;59230;54.164;-3.124;2023-04-21T05:27:57;28.45;;;9.75;;
47009;SDS011;59230;54.164;-3.124;2023-04-21T05:30:23;27.95;;;9.38;;
47009;SDS011;59230;54.164;-3.124;2023-04-21T05:32:49;29.15;;;9.57;;
47009;SDS011;59230;54.164;-3.124;2023-04-21T05:35:14;33.88;;;9.68;;
47009;SDS011;59230;54.164;-3.124;2023-04-21T05:37:40;32.03;;;9.15;;
47009;SDS011;59230;54.164;-3.124;2023-04-21T05:40:05;37.58;;;10.90;;
47009;SDS011;59230;54.164;-3.124;2023-04-21T05:42:31;33.25;;;10.73;;
47009;SDS011;59230;54.164;-3.124;2023-04-21T05:44:57;36.40;;;9.85;;
47009;SDS011;59230;54.164;-3.124;2023-04-21T05:47:22;31.58;;;9.27;;
47009;SDS011;59230;54.164;-3.124;2023-04-21T05:49:50;34.45;;;9.18;;
47009;SDS011;59230;54.164;-3.124;2023-04-21T05:52:17;34.25;;;10.82;;
47009;SDS011;59230;54.164;-3.124;2023-04-21T05:54:42;33.90;;;10.05;;
47009;SDS011;59230;54.164;-3.124;2023-04-21T05:57:08;38.15;;;9.93;;
47009;SDS011;59230;54.164;-3.124;2023-04-21T05:59:33;29.55;;;9.38;;
47009;SDS011;59230;54.164;-3.124;2023-04-21T06:01:59;27.13;;;9.15;;
47009;SDS011;59230;54.164;-3.124;2023-04-21T06:04:24;30.30;;;8.80;;
47009;SDS011;59230;54.164;-3.124;2023-04-21T06:06:50;37.60;;;9.57;;
47009;SDS011;59230;54.164;-3.124;2023-04-21T06:09:15;38.95;;;9.77;;
47009;SDS011;59230;54.164;-3.124;2023-04-21T06:11:41;37.42;;;9.73;;
47009;SDS011;59230;54.164;-3.124;2023-04-21T06:14:06;32.28;;;10.65;;
47009;SDS011;59230;54.164;-3.124;2023-04-21T06:16:31;29.13;;;7.82;;
47009;SDS011;59230;54.164;-3.124;2023-04-21T06:18:58;31.23;;;9.50;;
47009;SDS011;59230;54.164;-3.124;2023-04-21T06:21:24;35.47;;;9.60;;
47009;SDS011;59230;54.164;-3.124;2023-04-21T06:23:51;30.70;;;9.68;;
47009;SDS011;59230;54.164;-3.124;2023-04-21T06:26:16;32.97;;;9.23;;
47009;SDS011;59230;54.164;-3.124;2023-04-21T06:28:42;31.65;;;8.95;;
47009;SDS011;59230;54.164;-3.124;2023-04-21T06:31:07;23.73;;;8.40;;
47009;SDS011;59230;54.164;-3.124;2023-04-21T06:33:39;36.58;;;9.80;;
47009;SDS011;59230;54.164;-3.124;2023-04-21T06:36:04;37.42;;;9.30;;
47009;SDS011;59230;54.164;-3.124;2023-04-21T06:38:30;35.13;;;9.73;;
47009;SDS011;59230;54.164;-3.124;2023-04-21T06:40:55;29.85;;;9.77;;
47009;SDS011;59230;54.164;-3.124;2023-04-21T06:43:21;33.35;;;9.90;;
47009;SDS011;59230;54.164;-3.124;2023-04-21T06:45:47;23.00;;;8.48;;
47009;SDS011;59230;54.164;-3.124;2023-04-21T06:48:12;30.30;;;9.70;;
47009;SDS011;59230;54.164;-3.124;2023-04-21T06:50:37;35.15;;;9.63;;
47009;SDS011;59230;54.164;-3.124;2023-04-21T06:53:04;34.20;;;10.48;;
47009;SDS011;59230;54.164;-3.124;2023-04-21T06:55:30;24.70;;;8.65;;
47009;SDS011;59230;54.164;-3.124;2023-04-21T06:57:55;24.55;;;9.55;;
47009;SDS011;59230;54.164;-3.124;2023-04-21T07:00:21;27.23;;;9.02;;
47009;SDS011;59230;54.164;-3.124;2023-04-21T07:02:46;29.73;;;9.07;;
47009;SDS011;59230;54.164;-3.124;2023-04-21T07:05:33;36.05;;;9.02;;
47009;SDS011;59230;54.164;-3.124;2023-04-21T07:08:01;23.95;;;8.70;;
47009;SDS011;59230;54.164;-3.124;2023-04-21T07:10:26;22.10;;;8.57;;
47009;SDS011;59230;54.164;-3.124;2023-04-21T07:12:52;32.53;;;8.48;;
47009;SDS011;59230;54.164;-3.124;2023-04-21T07:15:25;19.58;;;8.88;;
47009;SDS011;59230;54.164;-3.124;2023-04-21T07:17:51;31.88;;;9.32;;
47009;SDS011;59230;54.164;-3.124;2023-04-21T07:20:28;26.90;;;9.73;;
47009;SDS011;59230;54.164;-3.124;2023-04-21T07:23:12;30.35;;;10.20;;
47009;SDS011;59230;54.164;-3.124;2023-04-21T07:25:39;27.77;;;8.93;;
47009;SDS011;59230;54.164;-3.124;2023-04-21T07:28:08;21.23;;;8.35;;
47009;SDS011;59230;54.164;-3.124;2023-04-21T07:30:33;29.45;;;8.70;;
47009;SDS011;59230;54.164;-3.124;2023-04-21T07:33:00;27.08;;;9.07;;
47009;SDS011;59230;54.164;-3.124;2023-04-21T07:35:26;24.98;;;9.43;;
47009;SDS011;59230;54.164;-3.124;2023-04-21T07:37:52;25.60;;;8.07;;
47009;SDS011;59230;54.164;-3.124;2023-04-21T07:40:18;22.02;;;8.40;;
47009;SDS011;59230;54.164;-3.124;2023-04-21T07:42:50;25.52;;;9.05;;
47009;SDS011;59230;54.164;-3.124;2023-04-21T07:45:21;28.17;;;8.30;;
47009;SDS011;59230;54.164;-3.124;2023-04-21T07:47:48;22.50;;;8.02;;
47009;SDS011;59230;54.164;-3.124;2023-04-21T07:50:15;21.38;;;8.45;;
47009;SDS011;59230;54.164;-3.124;2023-04-21T07:52:41;21.80;;;8.30;;
47009;SDS011;59230;54.164;-3.124;2023-04-21T07:55:08;28.33;;;9.13;;
47009;SDS011;59230;54.164;-3.124;2023-04-21T07:57:36;30.38;;;9.20;;
47009;SDS011;59230;54.164;-3.124;2023-04-21T08:00:03;19.05;;;7.45;;
47009;SDS011;59230;54.164;-3.124;2023-04-21T08:02:32;21.63;;;8.30;;
47009;SDS011;59230;54.164;-3.124;2023-04-21T08:05:07;30.10;;;8.77;;
47009;SDS011;59230;54.164;-3.124;2023-04-21T08:10:02;22.85;;;7.47;;
47009;SDS011;59230;54.164;-3.124;2023-04-21T08:12:29;25.00;;;7.63;;
47009;SDS011;59230;54.164;-3.124;2023-04-21T08:14:56;26.05;;;7.60;;
47009;SDS011;59230;54.164;-3.124;2023-04-21T08:17:24;31.45;;;8.93;;
47009;SDS011;59230;54.164;-3.124;2023-04-21T08:19:51;20.83;;;7.45;;
47009;SDS011;59230;54.164;-3.124;2023-04-21T08:22:17;19.02;;;7.28;;
47009;SDS011;59230;54.164;-3.124;2023-04-21T08:24:45;21.30;;;7.50;;
47009;SDS011;59230;54.164;-3.124;2023-04-21T08:27:10;22.80;;;7.95;;
47009;SDS011;59230;54.164;-3.124;2023-04-21T08:29:36;23.13;;;7.30;;
47009;SDS011;59230;54.164;-3.124;2023-04-21T08:32:01;18.27;;;8.23;;
47009;SDS011;59230;54.164;-3.124;2023-04-21T08:34:27;29.38;;;7.13;;
47009;SDS011;59230;54.164;-3.124;2023-04-21T08:36:52;23.45;;;8.18;;
47009;SDS011;59230;54.164;-3.124;2023-04-21T08:39:18;15.18;;;6.93;;
47009;SDS011;59230;54.164;-3.124;2023-04-21T08:41:43;18.88;;;7.75;;
47009;SDS011;59230;54.164;-3.124;2023-04-21T08:44:09;15.95;;;7.05;;
47009;SDS011;59230;54.164;-3.124;2023-04-21T08:46:35;20.88;;;7.45;;
47009;SDS011;59230;54.164;-3.124;2023-04-21T08:51:55;17.77;;;7.13;;
47009;SDS011;59230;54.164;-3.124;2023-04-21T08:54:24;23.25;;;8.18;;
47009;SDS011;59230;54.164;-3.124;2023-04-21T08:56:50;22.75;;;7.82;;
47009;SDS011;59230;54.164;-3.124;2023-04-21T08:59:15;18.58;;;7.35;;
47009;SDS011;59230;54.164;-3.124;2023-04-21T09:02:13;19.23;;;6.63;;
47009;SDS011;59230;54.164;-3.124;2023-04-21T09:04:44;21.52;;;7.43;;
47009;SDS011;59230;54.164;-3.124;2023-04-21T09:07:10;19.65;;;7.60;;
47009;SDS011;59230;54.164;-3.124;2023-04-21T09:09:50;26.70;;;8.50;;
47009;SDS011;59230;54.164;-3.124;2023-04-21T09:12:17;21.13;;;7.18;;
47009;SDS011;59230;54.164;-3.124;2023-04-21T09:14:43;24.02;;;8.07;;
47009;SDS011;59230;54.164;-3.124;2023-04-21T09:17:14;18.85;;;7.40;;
47009;SDS011;59230;54.164;-3.124;2023-04-21T09:19:41;25.67;;;7.22;;
47009;SDS011;59230;54.164;-3.124;2023-04-21T09:22:06;22.85;;;7.68;;
47009;SDS011;59230;54.164;-3.124;2023-04-21T09:24:32;21.60;;;6.57;;
47009;SDS011;59230;54.164;-3.124;2023-04-21T09:26:58;16.50;;;6.93;;
47009;SDS011;59230;54.164;-3.124;2023-04-21T09:29:27;24.45;;;7.35;;
47009;SDS011;59230;54.164;-3.124;2023-04-21T09:31:54;21.23;;;7.55;;
47009;SDS011;59230;54.164;-3.124;2023-04-21T09:34:20;28.40;;;7.20;;
47009;SDS011;59230;54.164;-3.124;2023-04-21T09:37:02;23.27;;;7.07;;
47009;SDS011;59230;54.164;-3.124;2023-04-21T09:39:49;27.25;;;6.93;;
47009;SDS011;59230;54.164;-3.124;2023-04-21T09:42:15;26.63;;;7.97;;
47009;SDS011;59230;54.164;-3.124;2023-04-21T09:47:30;22.00;;;7.95;;
47009;SDS011;59230;54.164;-3.124;2023-04-21T09:50:01;17.40;;;7.13;;
47009;SDS011;59230;54.164;-3.124;2023-04-21T09:52:35;20.42;;;6.85;;
47009;SDS011;59230;54.164;-3.124;2023-04-21T09:59:00;23.20;;;7.05;;
47009;SDS011;59230;54.164;-3.124;2023-04-21T10:02:25;20.55;;;6.85;;
47009;SDS011;59230;54.164;-3.124;2023-04-21T10:05:48;23.05;;;7.95;;
47009;SDS011;59230;54.164;-3.124;2023-04-21T10:08:14;23.77;;;6.85;;
47009;SDS011;59230;54.164;-3.124;2023-04-21T10:39:44;24.55;;;7.45;;
47009;SDS011;59230;54.164;-3.124;2023-04-21T10:42:19;27.00;;;7.50;;
47009;SDS011;59230;54.164;-3.124;2023-04-21T10:47:35;29.65;;;7.68;;
47009;SDS011;59230;54.164;-3.124;2023-04-21T10:50:40;26.25;;;6.65;;
47009;SDS011;59230;54.164;-3.124;2023-04-21T10:55:36;31.05;;;7.28;;
47009;SDS011;59230;54.164;-3.124;2023-04-21T10:58:07;22.70;;;7.18;;
47009;SDS011;59230;54.164;-3.124;2023-04-21T11:00:33;26.05;;;7.40;;
47009;SDS011;59230;54.164;-3.124;2023-04-21T11:03:04;32.95;;;7.60;;
47009;SDS011;59230;54.164;-3.124;2023-04-21T11:05:36;22.92;;;7.53;;
47009;SDS011;59230;54.164;-3.124;2023-04-21T11:08:13;25.55;;;7.32;;
47009;SDS011;59230;54.164;-3.124;2023-04-21T11:10:49;22.90;;;7.03;;
47009;SDS011;59230;54.164;-3.124;2023-04-21T11:13:19;19.08;;;6.20;;
47009;SDS011;59230;54.164;-3.124;2023-04-21T11:15:57;20.25;;;6.78;;
47009;SDS011;59230;54.164;-3.124;2023-04-21T11:19:01;21.65;;;7.63;;
47009;SDS011;59230;54.164;-3.124;2023-04-21T11:21:24;26.17;;;6.90;;
47009;SDS011;59230;54.164;-3.124;2023-04-21T11:23:53;19.75;;;6.75;;
47009;SDS011;59230;54.164;-3.124;2023-04-21T11:26:34;21.77;;;7.10;;
47009;SDS011;59230;54.164;-3.124;2023-04-21T11:29:06;19.20;;;6.90;;
47009;SDS011;59230;54.164;-3.124;2023-04-21T11:31:34;27.05;;;6.63;;
47009;SDS011;59230;54.164;-3.124;2023-04-21T11:34:04;28.30;;;8.52;;
47009;SDS011;59230;54.164;-3.124;2023-04-21T11:36:34;20.65;;;7.20;;
47009;SDS011;59230;54.164;-3.124;2023-04-21T11:41:37;23.17;;;6.57;;
47009;SDS011;59230;54.164;-3.124;2023-04-21T11:44:12;22.17;;;7.28;;
47009;SDS011;59230;54.164;-3.124;2023-04-21T11:46:43;25.10;;;6.45;;
47009;SDS011;59230;54.164;-3.124;2023-04-21T11:49:10;18.85;;;6.30;;
47009;SDS011;59230;54.164;-3.124;2023-04-21T11:51:41;23.85;;;7.47;;
47009;SDS011;59230;54.164;-3.124;2023-04-21T11:54:12;24.20;;;6.70;;
47009;SDS011;59230;54.164;-3.124;2023-04-21T11:56:42;20.58;;;6.32;;
47009;SDS011;59230;54.164;-3.124;2023-04-21T11:59:11;18.65;;;6.95;;
47009;SDS011;59230;54.164;-3.124;2023-04-21T12:01:47;29.95;;;6.85;;
47009;SDS011;59230;54.164;-3.124;2023-04-21T12:04:17;25.83;;;7.05;;
47009;SDS011;59230;54.164;-3.124;2023-04-21T12:06:44;31.42;;;6.85;;
47009;SDS011;59230;54.164;-3.124;2023-04-21T12:09:17;28.08;;;7.75;;
47009;SDS011;59230;54.164;-3.124;2023-04-21T12:11:51;21.52;;;6.80;;
47009;SDS011;59230;54.164;-3.124;2023-04-21T12:14:21;21.63;;;6.80;;
47009;SDS011;59230;54.164;-3.124;2023-04-21T12:16:49;24.48;;;6.97;;
47009;SDS011;59230;54.164;-3.124;2023-04-21T12:19:23;31.65;;;7.53;;
47009;SDS011;59230;54.164;-3.124;2023-04-21T12:22:11;19.73;;;6.65;;
47009;SDS011;59230;54.164;-3.124;2023-04-21T12:24:41;25.20;;;6.80;;
47009;SDS011;59230;54.164;-3.124;2023-04-21T12:27:07;23.75;;;6.95;;
47009;SDS011;59230;54.164;-3.124;2023-04-21T12:29:33;22.33;;;6.97;;
47009;SDS011;59230;54.164;-3.124;2023-04-21T12:32:04;23.85;;;7.70;;
47009;SDS011;59230;54.164;-3.124;2023-04-21T12:34:31;39.08;;;8.68;;
47009;SDS011;59230;54.164;-3.124;2023-04-21T12:36:57;21.25;;;6.88;;
47009;SDS011;59230;54.164;-3.124;2023-04-21T12:39:22;26.73;;;7.68;;
47009;SDS011;59230;54.164;-3.124;2023-04-21T12:41:50;20.20;;;7.03;;
47009;SDS011;59230;54.164;-3.124;2023-04-21T12:44:17;22.15;;;7.00;;
47009;SDS011;59230;54.164;-3.124;2023-04-21T12:46:43;18.65;;;6.60;;
47009;SDS011;59230;54.164;-3.124;2023-04-21T12:49:08;24.38;;;7.15;;
47009;SDS011;59230;54.164;-3.124;2023-04-21T12:51:35;17.58;;;6.75;;
47009;SDS011;59230;54.164;-3.124;2023-04-21T12:54:02;23.42;;;7.28;;
47009;SDS011;59230;54.164;-3.124;2023-04-21T12:56:29;31.05;;;7.75;;
47009;SDS011;59230;54.164;-3.124;2023-04-21T12:58:58;24.02;;;7.30;;
47009;SDS011;59230;54.164;-3.124;2023-04-21T13:01:26;28.63;;;7.28;;
47009;SDS011;59230;54.164;-3.124;2023-04-21T13:03:52;25.17;;;7.15;;
47009;SDS011;59230;54.164;-3.124;2023-04-21T13:06:18;22.08;;;7.15;;
47009;SDS011;59230;54.164;-3.124;2023-04-21T13:08:44;23.48;;;7.25;;
47009;SDS011;59230;54.164;-3.124;2023-04-21T13:11:10;26.17;;;7.18;;
47009;SDS011;59230;54.164;-3.124;2023-04-21T13:13:37;24.98;;;7.43;;
47009;SDS011;59230;54.164;-3.124;2023-04-21T13:16:03;28.23;;;6.55;;
47009;SDS011;59230;54.164;-3.124;2023-04-21T13:18:29;21.15;;;6.68;;
47009;SDS011;59230;54.164;-3.124;2023-04-21T13:20:59;21.35;;;6.72;;
47009;SDS011;59230;54.164;-3.124;2023-04-21T13:23:27;28.73;;;7.78;;
47009;SDS011;59230;54.164;-3.124;2023-04-21T13:25:53;24.67;;;8.02;;
47009;SDS011;59230;54.164;-3.124;2023-04-21T13:28:19;27.77;;;8.45;;
47009;SDS011;59230;54.164;-3.124;2023-04-21T13:30:45;22.67;;;7.53;;
47009;SDS011;59230;54.164;-3.124;2023-04-21T13:33:14;24.48;;;8.13;;
47009;SDS011;59230;54.164;-3.124;2023-04-21T13:35:40;23.70;;;7.40;;
47009;SDS011;59230;54.164;-3.124;2023-04-21T13:38:05;29.10;;;8.00;;
47009;SDS011;59230;54.164;-3.124;2023-04-21T13:40:31;29.13;;;8.35;;
47009;SDS011;59230;54.164;-3.124;2023-04-21T13:42:57;24.80;;;7.75;;
47009;SDS011;59230;54.164;-3.124;2023-04-21T13:45:26;27.02;;;8.73;;
47009;SDS011;59230;54.164;-3.124;2023-04-21T13:47:53;27.15;;;7.75;;
47009;SDS011;59230;54.164;-3.124;2023-04-21T13:50:19;28.92;;;7.90;;
47009;SDS011;59230;54.164;-3.124;2023-04-21T13:52:47;28.80;;;7.97;;
47009;SDS011;59230;54.164;-3.124;2023-04-21T13:55:14;20.05;;;7.95;;
47009;SDS011;59230;54.164;-3.124;2023-04-21T13:57:41;29.45;;;7.88;;
47009;SDS011;59230;54.164;-3.124;2023-04-21T14:00:07;25.83;;;8.73;;
47009;SDS011;59230;54.164;-3.124;2023-04-21T14:02:40;22.70;;;8.43;;
47009;SDS011;59230;54.164;-3.124;2023-04-21T14:05:06;27.73;;;8.70;;
47009;SDS011;59230;54.164;-3.124;2023-04-21T14:07:32;26.05;;;8.88;;
47009;SDS011;59230;54.164;-3.124;2023-04-21T14:10:01;25.55;;;8.50;;
47009;SDS011;59230;54.164;-3.124;2023-04-21T14:12:29;32.45;;;8.88;;
47009;SDS011;59230;54.164;-3.124;2023-04-21T14:14:56;35.45;;;10.05;;
47009;SDS011;59230;54.164;-3.124;2023-04-21T14:17:23;28.63;;;9.25;;
47009;SDS011;59230;54.164;-3.124;2023-04-21T14:19:52;35.03;;;9.35;;
47009;SDS011;59230;54.164;-3.124;2023-04-21T14:22:19;29.17;;;9.50;;
47009;SDS011;59230;54.164;-3.124;2023-04-21T14:24:45;26.95;;;9.27;;
47009;SDS011;59230;54.164;-3.124;2023-04-21T14:27:11;29.17;;;9.25;;
47009;SDS011;59230;54.164;-3.124;2023-04-21T14:29:43;21.95;;;8.13;;
47009;SDS011;59230;54.164;-3.124;2023-04-21T14:32:09;20.02;;;8.65;;
47009;SDS011;59230;54.164;-3.124;2023-04-21T14:34:36;21.58;;;8.98;;
47009;SDS011;59230;54.164;-3.124;2023-04-21T14:37:04;27.88;;;9.57;;
47009;SDS011;59230;54.164;-3.124;2023-04-21T14:39:31;26.00;;;9.02;;
47009;SDS011;59230;54.164;-3.124;2023-04-21T14:41:57;27.80;;;9.82;;
47009;SDS011;59230;54.164;-3.124;2023-04-21T14:44:23;21.35;;;9.00;;
47009;SDS011;59230;54.164;-3.124;2023-04-21T14:46:53;21.85;;;9.02;;
47009;SDS011;59230;54.164;-3.124;2023-04-21T14:49:19;29.02;;;11.07;;
47009;SDS011;59230;54.164;-3.124;2023-04-21T14:51:46;23.13;;;9.15;;
47009;SDS011;59230;54.164;-3.124;2023-04-21T14:54:15;24.13;;;9.52;;
47009;SDS011;59230;54.164;-3.124;2023-04-21T14:56:42;27.67;;;9.15;;
47009;SDS011;59230;54.164;-3.124;2023-04-21T14:59:11;23.83;;;8.80;;
47009;SDS011;59230;54.164;-3.124;2023-04-21T15:01:40;28.20;;;9.35;;
47009;SDS011;59230;54.164;-3.124;2023-04-21T15:04:08;24.75;;;9.38;;
47009;SDS011;59230;54.164;-3.124;2023-04-21T15:06:33;28.38;;;9.32;;
47009;SDS011;59230;54.164;-3.124;2023-04-21T15:09:00;24.85;;;8.65;;
47009;SDS011;59230;54.164;-3.124;2023-04-21T15:11:26;27.42;;;9.07;;
47009;SDS011;59230;54.164;-3.124;2023-04-21T15:13:52;29.42;;;8.57;;
47009;SDS011;59230;54.164;-3.124;2023-04-21T15:16:17;25.60;;;8.77;;